sensor_id;sensor_type;location;lat;lon;timestamp;temperature;humidity
56044;DHT22;41912;51.022;3.664;2024-03-29T00:00:53;11.20;99.90
56044;DHT22;41912;51.022;3.664;2024-03-29T00:03:18;11.20;99.90
56044;DHT22;41912;51.022;3.664;2024-03-29T00:05:44;11.30;99.90
56044;DHT22;41912;51.022;3.664;2024-03-29T00:08:10;11.20;99.90
56044;DHT22;41912;51.022;3.664;2024-03-29T00:10:36;11.20;99.90
56044;DHT22;41912;51.022;3.664;2024-03-29T00:13:01;11.20;99.90
56044;DHT22;41912;51.022;3.664;2024-03-29T00:15:27;11.20;99.90
56044;DHT22;41912;51.022;3.664;2024-03-29T00:17:53;11.20;99.90
56044;DHT22;41912;51.022;3.664;2024-03-29T00:20:18;11.20;99.90
56044;DHT22;41912;51.022;3.664;2024-03-29T00:22:46;11.20;99.90
56044;DHT22;41912;51.022;3.664;2024-03-29T00:25:12;11.30;99.90
56044;DHT22;41912;51.022;3.664;2024-03-29T00:27:38;11.30;99.90
56044;DHT22;41912;51.022;3.664;2024-03-29T00:30:03;11.30;99.90
56044;DHT22;41912;51.022;3.664;2024-03-29T00:32:30;11.40;99.90
56044;DHT22;41912;51.022;3.664;2024-03-29T00:34:55;11.40;99.90
56044;DHT22;41912;51.022;3.664;2024-03-29T00:37:23;11.30;99.90
56044;DHT22;41912;51.022;3.664;2024-03-29T00:39:49;11.30;99.90
56044;DHT22;41912;51.022;3.664;2024-03-29T00:42:15;11.30;99.90
56044;DHT22;41912;51.022;3.664;2024-03-29T00:44:42;11.30;99.90
56044;DHT22;41912;51.022;3.664;2024-03-29T00:47:09;11.40;99.90
56044;DHT22;41912;51.022;3.664;2024-03-29T00:49:35;11.40;99.90
56044;DHT22;41912;51.022;3.664;2024-03-29T00:52:02;11.40;99.90
56044;DHT22;41912;51.022;3.664;2024-03-29T00:54:27;11.40;99.90
56044;DHT22;41912;51.022;3.664;2024-03-29T00:56:53;11.30;99.90
56044;DHT22;41912;51.022;3.664;2024-03-29T00:59:19;11.40;99.90
56044;DHT22;41912;51.022;3.664;2024-03-29T01:01:45;11.30;99.90
56044;DHT22;41912;51.022;3.664;2024-03-29T01:04:11;11.40;99.90
56044;DHT22;41912;51.022;3.664;2024-03-29T01:06:38;11.40;99.90
56044;DHT22;41912;51.022;3.664;2024-03-29T01:09:04;11.40;99.90
56044;DHT22;41912;51.022;3.664;2024-03-29T01:11:30;11.40;99.70
56044;DHT22;41912;51.022;3.664;2024-03-29T01:13:56;11.40;99.90
56044;DHT22;41912;51.022;3.664;2024-03-29T01:16:21;11.40;99.90
56044;DHT22;41912;51.022;3.664;2024-03-29T01:18:47;11.40;99.70
56044;DHT22;41912;51.022;3.664;2024-03-29T01:21:13;11.40;99.60
56044;DHT22;41912;51.022;3.664;2024-03-29T01:23:39;11.40;99.70
56044;DHT22;41912;51.022;3.664;2024-03-29T01:26:06;11.40;99.70
56044;DHT22;41912;51.022;3.664;2024-03-29T01:28:32;11.40;99.70
56044;DHT22;41912;51.022;3.664;2024-03-29T01:30:57;11.40;99.70
56044;DHT22;41912;51.022;3.664;2024-03-29T01:33:24;11.40;99.80
56044;DHT22;41912;51.022;3.664;2024-03-29T01:35:50;11.50;99.90
56044;DHT22;41912;51.022;3.664;2024-03-29T01:38:16;11.40;99.90
56044;DHT22;41912;51.022;3.664;2024-03-29T01:40:41;11.40;99.90
56044;DHT22;41912;51.022;3.664;2024-03-29T01:43:07;11.40;99.90
56044;DHT22;41912;51.022;3.664;2024-03-29T01:45:36;11.40;99.90
56044;DHT22;41912;51.022;3.664;2024-03-29T01:48:04;11.40;99.90
56044;DHT22;41912;51.022;3.664;2024-03-29T01:50:31;11.40;99.90
56044;DHT22;41912;51.022;3.664;2024-03-29T01:52:56;11.40;99.90
56044;DHT22;41912;51.022;3.664;2024-03-29T01:55:22;11.40;99.90
56044;DHT22;41912;51.022;3.664;2024-03-29T01:57:50;11.40;99.90
56044;DHT22;41912;51.022;3.664;2024-03-29T02:00:16;11.40;99.90
56044;DHT22;41912;51.022;3.664;2024-03-29T02:02:42;11.40;99.90
56044;DHT22;41912;51.022;3.664;2024-03-29T02:05:07;11.40;99.90
56044;DHT22;41912;51.022;3.664;2024-03-29T02:07:33;11.40;99.90
56044;DHT22;41912;51.022;3.664;2024-03-29T02:09:59;11.40;99.90
56044;DHT22;41912;51.022;3.664;2024-03-29T02:12:25;11.30;99.80
56044;DHT22;41912;51.022;3.664;2024-03-29T02:14:51;11.40;99.90
56044;DHT22;41912;51.022;3.664;2024-03-29T02:17:16;11.40;99.90
56044;DHT22;41912;51.022;3.664;2024-03-29T02:19:42;11.40;99.90
56044;DHT22;41912;51.022;3.664;2024-03-29T02:22:09;11.30;99.90
56044;DHT22;41912;51.022;3.664;2024-03-29T02:24:37;11.30;99.90
56044;DHT22;41912;51.022;3.664;2024-03-29T02:27:03;11.30;99.90
56044;DHT22;41912;51.022;3.664;2024-03-29T02:29:30;11.20;99.90
56044;DHT22;41912;51.022;3.664;2024-03-29T02:31:56;11.20;99.90
56044;DHT22;41912;51.022;3.664;2024-03-29T02:34:22;11.10;99.90
56044;DHT22;41912;51.022;3.664;2024-03-29T02:36:48;11.10;99.90
56044;DHT22;41912;51.022;3.664;2024-03-29T02:39:14;11.10;99.90
56044;DHT22;41912;51.022;3.664;2024-03-29T02:41:40;11.10;99.90
56044;DHT22;41912;51.022;3.664;2024-03-29T02:44:05;11.00;99.90
56044;DHT22;41912;51.022;3.664;2024-03-29T02:46:31;11.10;99.90
56044;DHT22;41912;51.022;3.664;2024-03-29T02:48:56;11.10;99.90
56044;DHT22;41912;51.022;3.664;2024-03-29T02:51:22;10.90;99.90
56044;DHT22;41912;51.022;3.664;2024-03-29T02:53:48;10.70;99.90
56044;DHT22;41912;51.022;3.664;2024-03-29T02:56:16;10.70;99.90
56044;DHT22;41912;51.022;3.664;2024-03-29T02:58:46;10.70;99.90
56044;DHT22;41912;51.022;3.664;2024-03-29T03:01:12;10.70;99.90
56044;DHT22;41912;51.022;3.664;2024-03-29T03:03:37;10.80;99.90
56044;DHT22;41912;51.022;3.664;2024-03-29T03:06:03;10.70;99.90
56044;DHT22;41912;51.022;3.664;2024-03-29T03:08:29;10.70;99.90
56044;DHT22;41912;51.022;3.664;2024-03-29T03:11:13;10.70;99.90
56044;DHT22;41912;51.022;3.664;2024-03-29T03:13:39;10.60;99.90
56044;DHT22;41912;51.022;3.664;2024-03-29T03:16:05;10.60;99.90
56044;DHT22;41912;51.022;3.664;2024-03-29T03:18:31;10.60;99.90
56044;DHT22;41912;51.022;3.664;2024-03-29T03:20:57;10.50;99.90
56044;DHT22;41912;51.022;3.664;2024-03-29T03:23:24;10.60;99.90
56044;DHT22;41912;51.022;3.664;2024-03-29T03:25:57;10.60;99.90
56044;DHT22;41912;51.022;3.664;2024-03-29T03:28:23;10.60;99.90
56044;DHT22;41912;51.022;3.664;2024-03-29T03:30:50;10.60;99.90
56044;DHT22;41912;51.022;3.664;2024-03-29T03:33:16;10.80;99.90
56044;DHT22;41912;51.022;3.664;2024-03-29T03:35:43;10.50;99.90
56044;DHT22;41912;51.022;3.664;2024-03-29T03:38:08;10.50;99.90
56044;DHT22;41912;51.022;3.664;2024-03-29T03:40:38;10.50;99.90
56044;DHT22;41912;51.022;3.664;2024-03-29T03:43:04;10.50;99.90
56044;DHT22;41912;51.022;3.664;2024-03-29T03:45:38;10.50;99.90
56044;DHT22;41912;51.022;3.664;2024-03-29T03:48:06;10.50;99.90
56044;DHT22;41912;51.022;3.664;2024-03-29T03:50:32;10.40;99.90
56044;DHT22;41912;51.022;3.664;2024-03-29T03:52:58;10.40;99.90
56044;DHT22;41912;51.022;3.664;2024-03-29T03:55:24;10.50;99.90
56044;DHT22;41912;51.022;3.664;2024-03-29T03:57:49;10.40;99.90
56044;DHT22;41912;51.022;3.664;2024-03-29T04:00:17;10.50;99.90
56044;DHT22;41912;51.022;3.664;2024-03-29T04:02:47;10.50;99.90
56044;DHT22;41912;51.022;3.664;2024-03-29T04:05:13;10.50;99.90
56044;DHT22;41912;51.022;3.664;2024-03-29T04:07:39;10.50;99.90
56044;DHT22;41912;51.022;3.664;2024-03-29T04:10:05;10.40;99.90
56044;DHT22;41912;51.022;3.664;2024-03-29T04:12:30;10.40;99.90
56044;DHT22;41912;51.022;3.664;2024-03-29T04:14:56;10.40;99.90
56044;DHT22;41912;51.022;3.664;2024-03-29T04:17:23;10.40;99.90
56044;DHT22;41912;51.022;3.664;2024-03-29T04:19:49;10.40;99.90
56044;DHT22;41912;51.022;3.664;2024-03-29T04:22:14;10.30;99.90
56044;DHT22;41912;51.022;3.664;2024-03-29T04:24:40;10.30;99.90
56044;DHT22;41912;51.022;3.664;2024-03-29T04:27:05;10.30;99.90
56044;DHT22;41912;51.022;3.664;2024-03-29T04:29:31;10.30;99.90
56044;DHT22;41912;51.022;3.664;2024-03-29T04:31:57;10.30;99.90
56044;DHT22;41912;51.022;3.664;2024-03-29T04:34:22;10.30;99.90
56044;DHT22;41912;51.022;3.664;2024-03-29T04:36:48;10.40;99.90
56044;DHT22;41912;51.022;3.664;2024-03-29T04:39:13;10.30;99.90
56044;DHT22;41912;51.022;3.664;2024-03-29T04:41:39;10.20;99.90
56044;DHT22;41912;51.022;3.664;2024-03-29T04:44:05;10.20;99.90
56044;DHT22;41912;51.022;3.664;2024-03-29T04:46:31;10.20;99.90
56044;DHT22;41912;51.022;3.664;2024-03-29T04:48:57;10.20;99.90
56044;DHT22;41912;51.022;3.664;2024-03-29T04:51:23;10.10;99.90
56044;DHT22;41912;51.022;3.664;2024-03-29T04:53:48;10.10;99.90
56044;DHT22;41912;51.022;3.664;2024-03-29T04:56:14;10.10;99.90
56044;DHT22;41912;51.022;3.664;2024-03-29T04:58:40;10.10;99.90
56044;DHT22;41912;51.022;3.664;2024-03-29T05:01:05;10.00;99.90
56044;DHT22;41912;51.022;3.664;2024-03-29T05:03:32;10.10;99.90
56044;DHT22;41912;51.022;3.664;2024-03-29T05:05:58;10.10;99.90
56044;DHT22;41912;51.022;3.664;2024-03-29T05:08:24;10.10;99.90
56044;DHT22;41912;51.022;3.664;2024-03-29T05:10:50;10.10;99.90
56044;DHT22;41912;51.022;3.664;2024-03-29T05:13:17;10.10;99.90
56044;DHT22;41912;51.022;3.664;2024-03-29T05:15:47;10.10;99.90
56044;DHT22;41912;51.022;3.664;2024-03-29T05:18:13;10.00;99.90
56044;DHT22;41912;51.022;3.664;2024-03-29T05:20:39;10.00;99.90
56044;DHT22;41912;51.022;3.664;2024-03-29T05:23:13;10.10;99.90
56044;DHT22;41912;51.022;3.664;2024-03-29T05:25:40;10.00;99.90
56044;DHT22;41912;51.022;3.664;2024-03-29T05:28:06;10.00;99.90
56044;DHT22;41912;51.022;3.664;2024-03-29T05:30:33;10.00;99.90
56044;DHT22;41912;51.022;3.664;2024-03-29T05:33:00;10.00;99.90
56044;DHT22;41912;51.022;3.664;2024-03-29T05:35:25;10.00;99.90
56044;DHT22;41912;51.022;3.664;2024-03-29T05:37:51;10.00;99.90
56044;DHT22;41912;51.022;3.664;2024-03-29T05:40:19;10.00;99.90
56044;DHT22;41912;51.022;3.664;2024-03-29T05:42:44;10.00;99.90
56044;DHT22;41912;51.022;3.664;2024-03-29T05:45:26;10.20;99.90
56044;DHT22;41912;51.022;3.664;2024-03-29T05:47:54;10.00;99.90
56044;DHT22;41912;51.022;3.664;2024-03-29T05:50:20;10.00;99.90
56044;DHT22;41912;51.022;3.664;2024-03-29T05:52:46;10.00;99.90
56044;DHT22;41912;51.022;3.664;2024-03-29T05:55:12;10.00;99.90
56044;DHT22;41912;51.022;3.664;2024-03-29T05:57:38;10.00;99.90
56044;DHT22;41912;51.022;3.664;2024-03-29T06:00:07;10.00;99.90
56044;DHT22;41912;51.022;3.664;2024-03-29T06:02:34;10.00;99.90
56044;DHT22;41912;51.022;3.664;2024-03-29T06:05:00;10.00;99.90
56044;DHT22;41912;51.022;3.664;2024-03-29T06:07:26;9.90;99.90
56044;DHT22;41912;51.022;3.664;2024-03-29T06:09:54;9.70;99.90
56044;DHT22;41912;51.022;3.664;2024-03-29T06:12:20;9.80;99.90
56044;DHT22;41912;51.022;3.664;2024-03-29T06:14:45;9.90;99.90
56044;DHT22;41912;51.022;3.664;2024-03-29T06:17:29;9.90;99.90
56044;DHT22;41912;51.022;3.664;2024-03-29T06:19:55;9.80;99.90
56044;DHT22;41912;51.022;3.664;2024-03-29T06:22:24;9.80;99.90
56044;DHT22;41912;51.022;3.664;2024-03-29T06:24:51;9.90;99.90
56044;DHT22;41912;51.022;3.664;2024-03-29T06:27:17;9.90;99.90
56044;DHT22;41912;51.022;3.664;2024-03-29T06:29:44;9.90;99.90
56044;DHT22;41912;51.022;3.664;2024-03-29T06:32:10;9.90;99.90
56044;DHT22;41912;51.022;3.664;2024-03-29T06:34:36;10.00;99.90
56044;DHT22;41912;51.022;3.664;2024-03-29T06:37:02;10.00;99.90
56044;DHT22;41912;51.022;3.664;2024-03-29T06:39:28;10.00;99.90
56044;DHT22;41912;51.022;3.664;2024-03-29T06:41:53;10.00;99.90
56044;DHT22;41912;51.022;3.664;2024-03-29T06:44:19;10.00;99.90
56044;DHT22;41912;51.022;3.664;2024-03-29T06:46:48;10.00;99.90
56044;DHT22;41912;51.022;3.664;2024-03-29T06:49:14;10.00;99.90
56044;DHT22;41912;51.022;3.664;2024-03-29T06:51:40;9.90;99.90
56044;DHT22;41912;51.022;3.664;2024-03-29T06:54:06;9.90;99.90
56044;DHT22;41912;51.022;3.664;2024-03-29T06:56:32;9.90;99.90
56044;DHT22;41912;51.022;3.664;2024-03-29T06:58:58;10.00;99.90
56044;DHT22;41912;51.022;3.664;2024-03-29T07:01:24;10.00;99.90
56044;DHT22;41912;51.022;3.664;2024-03-29T07:03:50;10.00;99.90
56044;DHT22;41912;51.022;3.664;2024-03-29T07:06:15;10.00;99.90
56044;DHT22;41912;51.022;3.664;2024-03-29T07:08:41;10.00;99.90
56044;DHT22;41912;51.022;3.664;2024-03-29T07:11:07;10.00;99.90
56044;DHT22;41912;51.022;3.664;2024-03-29T07:13:32;10.10;99.90
56044;DHT22;41912;51.022;3.664;2024-03-29T07:16:01;10.10;99.90
56044;DHT22;41912;51.022;3.664;2024-03-29T07:18:27;10.20;99.90
56044;DHT22;41912;51.022;3.664;2024-03-29T07:20:53;10.20;99.90
56044;DHT22;41912;51.022;3.664;2024-03-29T07:23:19;10.20;99.90
56044;DHT22;41912;51.022;3.664;2024-03-29T07:25:56;10.20;99.90
56044;DHT22;41912;51.022;3.664;2024-03-29T07:28:22;10.30;99.90
56044;DHT22;41912;51.022;3.664;2024-03-29T07:30:48;10.30;99.90
56044;DHT22;41912;51.022;3.664;2024-03-29T07:33:15;10.30;99.90
56044;DHT22;41912;51.022;3.664;2024-03-29T07:35:41;10.30;99.90
56044;DHT22;41912;51.022;3.664;2024-03-29T07:38:07;10.30;99.90
56044;DHT22;41912;51.022;3.664;2024-03-29T07:40:33;10.40;99.90
56044;DHT22;41912;51.022;3.664;2024-03-29T07:43:00;10.40;99.90
56044;DHT22;41912;51.022;3.664;2024-03-29T07:45:26;10.40;99.90
56044;DHT22;41912;51.022;3.664;2024-03-29T07:47:53;10.50;99.90
56044;DHT22;41912;51.022;3.664;2024-03-29T07:50:19;10.50;99.90
56044;DHT22;41912;51.022;3.664;2024-03-29T07:52:47;10.50;99.90
56044;DHT22;41912;51.022;3.664;2024-03-29T07:55:13;10.50;99.90
56044;DHT22;41912;51.022;3.664;2024-03-29T07:57:39;10.50;99.90
56044;DHT22;41912;51.022;3.664;2024-03-29T08:00:05;10.50;99.90
56044;DHT22;41912;51.022;3.664;2024-03-29T08:02:32;10.50;99.90
56044;DHT22;41912;51.022;3.664;2024-03-29T08:04:57;10.50;99.90
56044;DHT22;41912;51.022;3.664;2024-03-29T08:07:24;10.60;99.90
56044;DHT22;41912;51.022;3.664;2024-03-29T08:09:50;10.60;99.90
56044;DHT22;41912;51.022;3.664;2024-03-29T08:12:18;10.70;99.90
56044;DHT22;41912;51.022;3.664;2024-03-29T08:14:44;10.70;99.90
56044;DHT22;41912;51.022;3.664;2024-03-29T08:17:10;10.70;99.90
56044;DHT22;41912;51.022;3.664;2024-03-29T08:19:36;10.60;99.90
56044;DHT22;41912;51.022;3.664;2024-03-29T08:22:02;10.60;99.90
56044;DHT22;41912;51.022;3.664;2024-03-29T08:24:28;10.70;99.90
56044;DHT22;41912;51.022;3.664;2024-03-29T08:26:53;10.70;99.90
56044;DHT22;41912;51.022;3.664;2024-03-29T08:29:19;10.80;99.90
56044;DHT22;41912;51.022;3.664;2024-03-29T08:31:44;10.80;99.90
56044;DHT22;41912;51.022;3.664;2024-03-29T08:34:10;10.80;99.90
56044;DHT22;41912;51.022;3.664;2024-03-29T08:36:39;10.90;99.90
56044;DHT22;41912;51.022;3.664;2024-03-29T08:39:04;10.90;99.90
56044;DHT22;41912;51.022;3.664;2024-03-29T08:41:30;10.90;99.90
56044;DHT22;41912;51.022;3.664;2024-03-29T08:43:56;10.80;99.90
56044;DHT22;41912;51.022;3.664;2024-03-29T08:46:22;10.90;99.90
56044;DHT22;41912;51.022;3.664;2024-03-29T08:48:48;10.90;99.90
56044;DHT22;41912;51.022;3.664;2024-03-29T08:51:14;10.90;99.90
56044;DHT22;41912;51.022;3.664;2024-03-29T08:53:40;10.90;99.90
56044;DHT22;41912;51.022;3.664;2024-03-29T08:56:06;10.90;99.90
56044;DHT22;41912;51.022;3.664;2024-03-29T08:58:32;11.00;99.90
56044;DHT22;41912;51.022;3.664;2024-03-29T09:00:57;11.00;99.90
56044;DHT22;41912;51.022;3.664;2024-03-29T09:03:23;11.00;99.90
56044;DHT22;41912;51.022;3.664;2024-03-29T09:05:50;11.00;99.90
56044;DHT22;41912;51.022;3.664;2024-03-29T09:08:17;11.00;99.90
56044;DHT22;41912;51.022;3.664;2024-03-29T09:10:44;11.00;99.90
56044;DHT22;41912;51.022;3.664;2024-03-29T09:13:10;10.80;99.90
56044;DHT22;41912;51.022;3.664;2024-03-29T09:15:36;11.10;99.90
56044;DHT22;41912;51.022;3.664;2024-03-29T09:18:02;11.10;99.90
56044;DHT22;41912;51.022;3.664;2024-03-29T09:20:38;11.10;99.90
56044;DHT22;41912;51.022;3.664;2024-03-29T09:23:04;11.20;99.90
56044;DHT22;41912;51.022;3.664;2024-03-29T09:25:30;11.30;99.90
56044;DHT22;41912;51.022;3.664;2024-03-29T09:27:57;11.30;99.90
56044;DHT22;41912;51.022;3.664;2024-03-29T09:30:23;11.40;99.90
56044;DHT22;41912;51.022;3.664;2024-03-29T09:32:48;11.50;99.90
56044;DHT22;41912;51.022;3.664;2024-03-29T09:35:17;11.60;99.90
56044;DHT22;41912;51.022;3.664;2024-03-29T09:37:43;11.70;99.90
56044;DHT22;41912;51.022;3.664;2024-03-29T09:40:10;11.80;99.90
56044;DHT22;41912;51.022;3.664;2024-03-29T09:42:38;11.90;99.90
56044;DHT22;41912;51.022;3.664;2024-03-29T09:45:05;11.90;99.90
56044;DHT22;41912;51.022;3.664;2024-03-29T09:47:31;12.00;99.90
56044;DHT22;41912;51.022;3.664;2024-03-29T09:50:02;12.00;99.90
56044;DHT22;41912;51.022;3.664;2024-03-29T09:52:30;12.10;99.90
56044;DHT22;41912;51.022;3.664;2024-03-29T09:54:56;12.00;99.90
56044;DHT22;41912;51.022;3.664;2024-03-29T09:57:23;12.10;99.90
56044;DHT22;41912;51.022;3.664;2024-03-29T09:59:49;12.20;99.90
56044;DHT22;41912;51.022;3.664;2024-03-29T10:02:16;12.30;99.90
56044;DHT22;41912;51.022;3.664;2024-03-29T10:04:44;12.30;99.90
56044;DHT22;41912;51.022;3.664;2024-03-29T10:07:11;12.40;99.90
56044;DHT22;41912;51.022;3.664;2024-03-29T10:09:38;12.60;99.90
56044;DHT22;41912;51.022;3.664;2024-03-29T10:12:04;12.70;99.90
56044;DHT22;41912;51.022;3.664;2024-03-29T10:14:31;12.90;99.90
56044;DHT22;41912;51.022;3.664;2024-03-29T10:16:59;13.00;99.90
56044;DHT22;41912;51.022;3.664;2024-03-29T10:19:25;12.90;99.90
56044;DHT22;41912;51.022;3.664;2024-03-29T10:21:51;13.00;99.90
56044;DHT22;41912;51.022;3.664;2024-03-29T10:24:17;13.00;99.90
56044;DHT22;41912;51.022;3.664;2024-03-29T10:26:43;13.00;99.90
56044;DHT22;41912;51.022;3.664;2024-03-29T10:29:09;13.10;99.90
56044;DHT22;41912;51.022;3.664;2024-03-29T10:31:35;13.10;99.90
56044;DHT22;41912;51.022;3.664;2024-03-29T10:34:04;13.10;99.90
56044;DHT22;41912;51.022;3.664;2024-03-29T10:36:31;13.20;99.90
56044;DHT22;41912;51.022;3.664;2024-03-29T10:39:10;13.20;99.90
56044;DHT22;41912;51.022;3.664;2024-03-29T10:41:43;13.10;99.90
56044;DHT22;41912;51.022;3.664;2024-03-29T10:44:10;13.10;99.90
56044;DHT22;41912;51.022;3.664;2024-03-29T10:46:40;13.20;99.90
56044;DHT22;41912;51.022;3.664;2024-03-29T10:49:10;13.20;99.90
56044;DHT22;41912;51.022;3.664;2024-03-29T10:51:40;13.30;99.90
56044;DHT22;41912;51.022;3.664;2024-03-29T10:54:08;13.40;99.90
56044;DHT22;41912;51.022;3.664;2024-03-29T10:56:35;13.40;99.90
56044;DHT22;41912;51.022;3.664;2024-03-29T11:01:59;13.70;99.90
56044;DHT22;41912;51.022;3.664;2024-03-29T11:04:31;13.80;99.90
56044;DHT22;41912;51.022;3.664;2024-03-29T11:07:03;13.90;99.90
56044;DHT22;41912;51.022;3.664;2024-03-29T11:09:31;13.90;99.90
56044;DHT22;41912;51.022;3.664;2024-03-29T11:11:59;14.00;99.90
56044;DHT22;41912;51.022;3.664;2024-03-29T11:14:45;14.00;99.90
56044;DHT22;41912;51.022;3.664;2024-03-29T11:17:13;14.10;99.90
56044;DHT22;41912;51.022;3.664;2024-03-29T11:19:39;14.10;99.90
56044;DHT22;41912;51.022;3.664;2024-03-29T11:22:05;14.10;99.90
56044;DHT22;41912;51.022;3.664;2024-03-29T11:24:32;14.00;99.90
56044;DHT22;41912;51.022;3.664;2024-03-29T11:27:07;14.00;99.90
56044;DHT22;41912;51.022;3.664;2024-03-29T11:29:33;14.10;99.90
56044;DHT22;41912;51.022;3.664;2024-03-29T11:32:04;14.00;99.90
56044;DHT22;41912;51.022;3.664;2024-03-29T11:34:33;14.10;99.90
56044;DHT22;41912;51.022;3.664;2024-03-29T11:37:29;14.00;99.90
56044;DHT22;41912;51.022;3.664;2024-03-29T11:39:55;14.10;99.90
56044;DHT22;41912;51.022;3.664;2024-03-29T11:42:36;14.20;99.90
56044;DHT22;41912;51.022;3.664;2024-03-29T11:45:01;14.20;99.90
56044;DHT22;41912;51.022;3.664;2024-03-29T11:47:27;14.30;99.90
56044;DHT22;41912;51.022;3.664;2024-03-29T11:49:57;14.40;99.90
56044;DHT22;41912;51.022;3.664;2024-03-29T11:52:26;14.40;99.90
56044;DHT22;41912;51.022;3.664;2024-03-29T11:54:54;14.40;99.90
56044;DHT22;41912;51.022;3.664;2024-03-29T11:57:19;14.50;99.90
56044;DHT22;41912;51.022;3.664;2024-03-29T11:59:45;14.60;99.90
56044;DHT22;41912;51.022;3.664;2024-03-29T12:02:13;14.70;99.90
56044;DHT22;41912;51.022;3.664;2024-03-29T12:04:41;14.60;99.90
56044;DHT22;41912;51.022;3.664;2024-03-29T12:07:06;14.60;99.90
56044;DHT22;41912;51.022;3.664;2024-03-29T12:09:32;14.70;99.90
56044;DHT22;41912;51.022;3.664;2024-03-29T12:11:58;14.70;99.90
56044;DHT22;41912;51.022;3.664;2024-03-29T12:14:29;14.90;99.90
56044;DHT22;41912;51.022;3.664;2024-03-29T12:17:00;14.90;99.90
56044;DHT22;41912;51.022;3.664;2024-03-29T12:19:26;15.00;99.90
56044;DHT22;41912;51.022;3.664;2024-03-29T12:21:53;15.00;99.90
56044;DHT22;41912;51.022;3.664;2024-03-29T12:24:19;15.10;99.90
56044;DHT22;41912;51.022;3.664;2024-03-29T12:26:45;15.10;99.90
56044;DHT22;41912;51.022;3.664;2024-03-29T12:29:11;15.10;99.90
56044;DHT22;41912;51.022;3.664;2024-03-29T12:31:36;15.20;99.90
56044;DHT22;41912;51.022;3.664;2024-03-29T12:34:03;15.20;99.90
56044;DHT22;41912;51.022;3.664;2024-03-29T12:36:31;15.30;99.90
56044;DHT22;41912;51.022;3.664;2024-03-29T12:38:58;15.30;99.90
56044;DHT22;41912;51.022;3.664;2024-03-29T12:41:32;15.40;99.90
56044;DHT22;41912;51.022;3.664;2024-03-29T12:43:58;15.40;99.90
56044;DHT22;41912;51.022;3.664;2024-03-29T12:46:24;15.50;99.90
56044;DHT22;41912;51.022;3.664;2024-03-29T12:49:00;15.40;99.90
56044;DHT22;41912;51.022;3.664;2024-03-29T12:51:27;15.50;99.90
56044;DHT22;41912;51.022;3.664;2024-03-29T12:53:54;15.30;99.90
56044;DHT22;41912;51.022;3.664;2024-03-29T12:56:21;15.30;99.90
56044;DHT22;41912;51.022;3.664;2024-03-29T12:58:46;15.40;99.90
56044;DHT22;41912;51.022;3.664;2024-03-29T13:01:12;15.50;99.90
56044;DHT22;41912;51.022;3.664;2024-03-29T13:03:37;15.40;99.90
56044;DHT22;41912;51.022;3.664;2024-03-29T13:06:06;15.50;99.90
56044;DHT22;41912;51.022;3.664;2024-03-29T13:08:32;15.40;99.90
56044;DHT22;41912;51.022;3.664;2024-03-29T13:10:57;15.40;99.80
56044;DHT22;41912;51.022;3.664;2024-03-29T13:13:23;15.30;99.90
56044;DHT22;41912;51.022;3.664;2024-03-29T13:15:49;15.30;99.90
56044;DHT22;41912;51.022;3.664;2024-03-29T13:18:16;15.30;99.90
56044;DHT22;41912;51.022;3.664;2024-03-29T13:20:43;15.40;99.90
56044;DHT22;41912;51.022;3.664;2024-03-29T13:23:09;15.30;99.90
56044;DHT22;41912;51.022;3.664;2024-03-29T13:25:36;15.20;99.90
56044;DHT22;41912;51.022;3.664;2024-03-29T13:28:02;15.30;99.90
56044;DHT22;41912;51.022;3.664;2024-03-29T13:30:28;15.30;99.90
56044;DHT22;41912;51.022;3.664;2024-03-29T13:32:54;15.40;99.90
56044;DHT22;41912;51.022;3.664;2024-03-29T13:35:20;15.50;99.90
56044;DHT22;41912;51.022;3.664;2024-03-29T13:37:50;15.60;99.90
56044;DHT22;41912;51.022;3.664;2024-03-29T13:40:18;15.50;99.90
56044;DHT22;41912;51.022;3.664;2024-03-29T13:42:45;15.50;99.90
56044;DHT22;41912;51.022;3.664;2024-03-29T13:45:11;15.50;99.90
56044;DHT22;41912;51.022;3.664;2024-03-29T13:47:37;15.40;99.90
56044;DHT22;41912;51.022;3.664;2024-03-29T13:50:05;15.40;99.90
56044;DHT22;41912;51.022;3.664;2024-03-29T13:52:31;15.30;99.90
56044;DHT22;41912;51.022;3.664;2024-03-29T13:54:57;15.10;99.90
56044;DHT22;41912;51.022;3.664;2024-03-29T13:57:23;15.10;99.90
56044;DHT22;41912;51.022;3.664;2024-03-29T13:59:48;15.10;99.90
56044;DHT22;41912;51.022;3.664;2024-03-29T14:02:16;15.10;99.90
56044;DHT22;41912;51.022;3.664;2024-03-29T14:04:42;15.20;99.90
56044;DHT22;41912;51.022;3.664;2024-03-29T14:07:12;15.20;99.90
56044;DHT22;41912;51.022;3.664;2024-03-29T14:09:42;15.30;99.90
56044;DHT22;41912;51.022;3.664;2024-03-29T14:12:08;15.30;99.90
56044;DHT22;41912;51.022;3.664;2024-03-29T14:14:34;15.30;99.90
56044;DHT22;41912;51.022;3.664;2024-03-29T14:17:00;15.20;99.90
56044;DHT22;41912;51.022;3.664;2024-03-29T14:19:33;15.20;99.90
56044;DHT22;41912;51.022;3.664;2024-03-29T14:21:59;15.10;99.90
56044;DHT22;41912;51.022;3.664;2024-03-29T14:24:25;15.10;99.90
56044;DHT22;41912;51.022;3.664;2024-03-29T14:26:52;15.20;99.90
56044;DHT22;41912;51.022;3.664;2024-03-29T14:29:18;15.30;99.90
56044;DHT22;41912;51.022;3.664;2024-03-29T14:31:49;15.30;99.90
56044;DHT22;41912;51.022;3.664;2024-03-29T14:34:16;15.30;99.90
56044;DHT22;41912;51.022;3.664;2024-03-29T14:36:42;15.40;99.90
56044;DHT22;41912;51.022;3.664;2024-03-29T14:39:08;15.40;99.90
56044;DHT22;41912;51.022;3.664;2024-03-29T14:41:35;15.40;99.90
56044;DHT22;41912;51.022;3.664;2024-03-29T14:44:02;15.40;99.60
56044;DHT22;41912;51.022;3.664;2024-03-29T14:46:28;15.40;99.90
56044;DHT22;41912;51.022;3.664;2024-03-29T14:48:53;15.50;99.90
56044;DHT22;41912;51.022;3.664;2024-03-29T14:51:19;15.40;99.90
56044;DHT22;41912;51.022;3.664;2024-03-29T14:53:45;15.40;99.80
56044;DHT22;41912;51.022;3.664;2024-03-29T14:56:16;15.40;99.60
56044;DHT22;41912;51.022;3.664;2024-03-29T14:58:41;15.50;99.60
56044;DHT22;41912;51.022;3.664;2024-03-29T15:01:07;15.40;99.00
56044;DHT22;41912;51.022;3.664;2024-03-29T15:03:33;15.40;98.80
56044;DHT22;41912;51.022;3.664;2024-03-29T15:05:58;15.50;98.80
56044;DHT22;41912;51.022;3.664;2024-03-29T15:08:24;15.50;99.30
56044;DHT22;41912;51.022;3.664;2024-03-29T15:10:57;15.50;99.30
56044;DHT22;41912;51.022;3.664;2024-03-29T15:13:23;15.60;99.30
56044;DHT22;41912;51.022;3.664;2024-03-29T15:15:56;15.60;99.20
56044;DHT22;41912;51.022;3.664;2024-03-29T15:18:23;15.50;99.70
56044;DHT22;41912;51.022;3.664;2024-03-29T15:21:00;15.60;99.60
56044;DHT22;41912;51.022;3.664;2024-03-29T15:23:27;15.60;99.50
56044;DHT22;41912;51.022;3.664;2024-03-29T15:25:57;15.70;99.60
56044;DHT22;41912;51.022;3.664;2024-03-29T15:28:25;15.70;99.70
56044;DHT22;41912;51.022;3.664;2024-03-29T15:31:10;15.60;99.70
56044;DHT22;41912;51.022;3.664;2024-03-29T15:33:37;15.70;99.90